sensor_id;sensor_type;location;lat;lon;timestamp;pressure;altitude;pressure_sealevel;temperature
62930;BMP280;49036;42.782;23.108;2023-01-19T09:36:51;92922.34;;;14.59
62930;BMP280;49036;42.782;23.108;2023-01-19T09:39:17;92936.03;;;14.51
62930;BMP280;49036;42.782;23.108;2023-01-19T09:41:47;92953.22;;;14.26
62930;BMP280;49036;42.782;23.108;2023-01-19T09:44:22;92935.94;;;14.49
62930;BMP280;49036;42.782;23.108;2023-01-19T09:46:51;92935.94;;;14.49
62930;BMP280;49036;42.782;23.108;2023-01-19T09:49:30;92927.38;;;14.83
62930;BMP280;49036;42.782;23.108;2023-01-19T09:51:57;92931.38;;;14.78
62930;BMP280;49036;42.782;23.108;2023-01-19T09:54:35;92927.06;;;14.75
62930;BMP280;49036;42.782;23.108;2023-01-19T09:57:09;92928.63;;;14.60
62930;BMP280;49036;42.782;23.108;2023-01-19T09:59:36;92928.50;;;14.76
62930;BMP280;49036;42.782;23.108;2023-01-19T10:02:20;92916.19;;;14.43
62930;BMP280;49036;42.782;23.108;2023-01-19T10:05:25;92924.63;;;14.45
62930;BMP280;49036;42.782;23.108;2023-01-19T10:08:00;92923.19;;;14.44
62930;BMP280;49036;42.782;23.108;2023-01-19T10:10:34;92928.75;;;14.24
62930;BMP280;49036;42.782;23.108;2023-01-19T10:13:27;92928.34;;;13.96
62930;BMP280;49036;42.782;23.108;2023-01-19T10:18:49;92935.28;;;13.42
62930;BMP280;49036;42.782;23.108;2023-01-19T10:21:22;92919.38;;;13.80
62930;BMP280;49036;42.782;23.108;2023-01-19T10:24:03;92916.41;;;14.12
62930;BMP280;49036;42.782;23.108;2023-01-19T10:26:36;92923.56;;;14.17
62930;BMP280;49036;42.782;23.108;2023-01-19T10:31:52;92920.66;;;13.77
62930;BMP280;49036;42.782;23.108;2023-01-19T10:34:19;92927.81;;;14.00
62930;BMP280;49036;42.782;23.108;2023-01-19T10:36:47;92908.75;;;14.12
62930;BMP280;49036;42.782;23.108;2023-01-19T10:39:16;92921.38;;;14.33
62930;BMP280;49036;42.782;23.108;2023-01-19T10:44:10;92917.94;;;14.35
62930;BMP280;49036;42.782;23.108;2023-01-19T10:50:21;92909.53;;;14.15
62930;BMP280;49036;42.782;23.108;2023-01-19T10:52:49;92904.38;;;14.07
62930;BMP280;49036;42.782;23.108;2023-01-19T10:55:24;92915.72;;;13.76
62930;BMP280;49036;42.782;23.108;2023-01-19T10:57:50;92902.00;;;13.82
62930;BMP280;49036;42.782;23.108;2023-01-19T11:00:40;92905.19;;;14.29
62930;BMP280;49036;42.782;23.108;2023-01-19T11:03:28;92908.25;;;14.75
62930;BMP280;49036;42.782;23.108;2023-01-19T11:08:44;92903.50;;;15.00
62930;BMP280;49036;42.782;23.108;2023-01-19T11:11:10;92867.78;;;14.96
62930;BMP280;49036;42.782;23.108;2023-01-19T11:13:40;92884.88;;;14.86
62930;BMP280;49036;42.782;23.108;2023-01-19T11:18:41;92886.59;;;14.36
62930;BMP280;49036;42.782;23.108;2023-01-19T11:21:16;92893.41;;;14.31
62930;BMP280;49036;42.782;23.108;2023-01-19T11:23:51;92904.41;;;14.27
62930;BMP280;49036;42.782;23.108;2023-01-19T11:27:23;92879.81;;;14.04
62930;BMP280;49036;42.782;23.108;2023-01-19T11:29:59;92889.22;;;14.12
62930;BMP280;49036;42.782;23.108;2023-01-19T11:33:35;92890.69;;;14.33
62930;BMP280;49036;42.782;23.108;2023-01-19T11:36:04;92877.94;;;14.68
62930;BMP280;49036;42.782;23.108;2023-01-19T11:38:30;92877.88;;;14.26
62930;BMP280;49036;42.782;23.108;2023-01-19T11:40:57;92912.56;;;14.21
62930;BMP280;49036;42.782;23.108;2023-01-19T11:43:27;92888.91;;;14.04
62930;BMP280;49036;42.782;23.108;2023-01-19T11:45:55;92881.34;;;14.07
62930;BMP280;49036;42.782;23.108;2023-01-19T11:48:42;92874.34;;;14.06
62930;BMP280;49036;42.782;23.108;2023-01-19T11:51:16;92881.28;;;14.05
62930;BMP280;49036;42.782;23.108;2023-01-19T11:53:50;92893.97;;;13.90
62930;BMP280;49036;42.782;23.108;2023-01-19T11:56:16;92875.00;;;13.86
62930;BMP280;49036;42.782;23.108;2023-01-19T11:58:45;92895.63;;;13.79
62930;BMP280;49036;42.782;23.108;2023-01-19T12:01:30;92893.75;;;13.66
62930;BMP280;49036;42.782;23.108;2023-01-19T12:04:05;92889.19;;;13.57
62930;BMP280;49036;42.782;23.108;2023-01-19T12:06:36;92893.97;;;13.72
62930;BMP280;49036;42.782;23.108;2023-01-19T12:09:17;92901.00;;;13.73
62930;BMP280;49036;42.782;23.108;2023-01-19T12:11:47;92872.16;;;13.67
62930;BMP280;49036;42.782;23.108;2023-01-19T12:14:49;92857.41;;;13.64
62930;BMP280;49036;42.782;23.108;2023-01-19T12:17:32;92846.25;;;13.64
62930;BMP280;49036;42.782;23.108;2023-01-19T12:20:04;92861.88;;;13.71
62930;BMP280;49036;42.782;23.108;2023-01-19T12:22:37;92863.94;;;13.71
62930;BMP280;49036;42.782;23.108;2023-01-19T12:25:20;92860.06;;;13.60
62930;BMP280;49036;42.782;23.108;2023-01-19T12:27:47;92861.38;;;13.59
62930;BMP280;49036;42.782;23.108;2023-01-19T12:30:22;92884.56;;;13.46
62930;BMP280;49036;42.782;23.108;2023-01-19T12:32:49;92868.63;;;13.13
62930;BMP280;49036;42.782;23.108;2023-01-19T12:38:44;92854.03;;;12.96
62930;BMP280;49036;42.782;23.108;2023-01-19T12:41:29;92846.78;;;13.07
62930;BMP280;49036;42.782;23.108;2023-01-19T12:49:03;92832.09;;;13.22
62930;BMP280;49036;42.782;23.108;2023-01-19T12:51:28;92842.84;;;13.30
62930;BMP280;49036;42.782;23.108;2023-01-19T12:53:56;92835.22;;;13.31
62930;BMP280;49036;42.782;23.108;2023-01-19T12:56:32;92840.78;;;13.31
62930;BMP280;49036;42.782;23.108;2023-01-19T12:58:59;92828.56;;;13.40
62930;BMP280;49036;42.782;23.108;2023-01-19T13:01:24;92818.63;;;13.52
62930;BMP280;49036;42.782;23.108;2023-01-19T13:04:30;92812.44;;;13.54
62930;BMP280;49036;42.782;23.108;2023-01-19T13:09:37;92805.50;;;13.55
62930;BMP280;49036;42.782;23.108;2023-01-19T13:14:39;92826.75;;;13.46
62930;BMP280;49036;42.782;23.108;2023-01-19T13:17:42;92808.84;;;13.51
62930;BMP280;49036;42.782;23.108;2023-01-19T13:20:20;92835.84;;;13.47
62930;BMP280;49036;42.782;23.108;2023-01-19T13:22:49;92800.38;;;13.49
62930;BMP280;49036;42.782;23.108;2023-01-19T13:25:57;92830.84;;;13.43
62930;BMP280;49036;42.782;23.108;2023-01-19T13:28:31;92814.81;;;13.44
62930;BMP280;49036;42.782;23.108;2023-01-19T13:30:58;92802.53;;;13.51
62930;BMP280;49036;42.782;23.108;2023-01-19T13:33:29;92813.41;;;13.43
62930;BMP280;49036;42.782;23.108;2023-01-19T13:35:58;92817.13;;;13.32
62930;BMP280;49036;42.782;23.108;2023-01-19T13:38:25;92809.72;;;13.38
62930;BMP280;49036;42.782;23.108;2023-01-19T13:40:52;92810.91;;;13.33
62930;BMP280;49036;42.782;23.108;2023-01-19T13:43:28;92816.59;;;13.35
62930;BMP280;49036;42.782;23.108;2023-01-19T13:45:56;92807.16;;;13.26
62930;BMP280;49036;42.782;23.108;2023-01-19T13:48:23;92804.06;;;13.18
62930;BMP280;49036;42.782;23.108;2023-01-19T13:51:01;92809.41;;;13.12
62930;BMP280;49036;42.782;23.108;2023-01-19T13:53:28;92798.97;;;13.13
62930;BMP280;49036;42.782;23.108;2023-01-19T13:58:33;92813.75;;;13.00
62930;BMP280;49036;42.782;23.108;2023-01-19T14:00:59;92816.47;;;12.98
62930;BMP280;49036;42.782;23.108;2023-01-19T14:03:25;92831.19;;;13.00
62930;BMP280;49036;42.782;23.108;2023-01-19T14:05:51;92825.13;;;12.88
62930;BMP280;49036;42.782;23.108;2023-01-19T14:08:17;92827.75;;;12.84
62930;BMP280;49036;42.782;23.108;2023-01-19T14:11:01;92834.81;;;12.87
62930;BMP280;49036;42.782;23.108;2023-01-19T14:13:32;92834.09;;;12.86
62930;BMP280;49036;42.782;23.108;2023-01-19T14:16:03;92828.03;;;12.74
62930;BMP280;49036;42.782;23.108;2023-01-19T14:18:34;92829.13;;;12.67
62930;BMP280;49036;42.782;23.108;2023-01-19T14:21:03;92836.13;;;12.68
62930;BMP280;49036;42.782;23.108;2023-01-19T14:23:51;92851.13;;;12.61
62930;BMP280;49036;42.782;23.108;2023-01-19T14:29:41;92845.13;;;12.51
62930;BMP280;49036;42.782;23.108;2023-01-19T14:32:18;92845.41;;;12.57
62930;BMP280;49036;42.782;23.108;2023-01-19T14:34:49;92863.91;;;12.50
62930;BMP280;49036;42.782;23.108;2023-01-19T14:37:24;92868.44;;;12.44
62930;BMP280;49036;42.782;23.108;2023-01-19T14:39:52;92868.94;;;12.38
62930;BMP280;49036;42.782;23.108;2023-01-19T14:42:24;92872.44;;;12.39
62930;BMP280;49036;42.782;23.108;2023-01-19T14:44:52;92887.84;;;12.26
62930;BMP280;49036;42.782;23.108;2023-01-19T14:47:53;92875.28;;;12.25
62930;BMP280;49036;42.782;23.108;2023-01-19T14:50:23;92884.97;;;12.08
62930;BMP280;49036;42.782;23.108;2023-01-19T14:52:54;92875.28;;;12.09
62930;BMP280;49036;42.782;23.108;2023-01-19T14:55:44;92886.03;;;12.01
62930;BMP280;49036;42.782;23.108;2023-01-19T14:58:13;92884.59;;;12.00
62930;BMP280;49036;42.782;23.108;2023-01-19T15:00:40;92886.41;;;12.09
62930;BMP280;49036;42.782;23.108;2023-01-19T15:03:06;92910.09;;;12.10
62930;BMP280;49036;42.782;23.108;2023-01-19T15:05:35;92905.44;;;12.15
62930;BMP280;49036;42.782;23.108;2023-01-19T15:08:02;92909.38;;;12.10
62930;BMP280;49036;42.782;23.108;2023-01-19T15:10:27;92920.75;;;12.00
62930;BMP280;49036;42.782;23.108;2023-01-19T15:12:53;92914.31;;;12.11
62930;BMP280;49036;42.782;23.108;2023-01-19T15:15:26;92914.56;;;12.02
62930;BMP280;49036;42.782;23.108;2023-01-19T15:17:53;92901.56;;;12.06
62930;BMP280;49036;42.782;23.108;2023-01-19T15:20:19;92913.28;;;12.05
62930;BMP280;49036;42.782;23.108;2023-01-19T15:22:45;92914.63;;;11.88
62930;BMP280;49036;42.782;23.108;2023-01-19T15:25:16;92924.84;;;11.83
62930;BMP280;49036;42.782;23.108;2023-01-19T15:27:44;92929.41;;;11.77
62930;BMP280;49036;42.782;23.108;2023-01-19T15:30:19;92931.31;;;11.88
62930;BMP280;49036;42.782;23.108;2023-01-19T15:32:45;92940.38;;;11.88
62930;BMP280;49036;42.782;23.108;2023-01-19T15:35:14;92944.50;;;11.87
62930;BMP280;49036;42.782;23.108;2023-01-19T15:37:40;92953.47;;;11.72
62930;BMP280;49036;42.782;23.108;2023-01-19T15:40:05;92941.91;;;11.62
62930;BMP280;49036;42.782;23.108;2023-01-19T15:42:31;92954.06;;;11.55
62930;BMP280;49036;42.782;23.108;2023-01-19T15:44:57;92961.38;;;11.48
62930;BMP280;49036;42.782;23.108;2023-01-19T15:47:23;92958.16;;;11.54
62930;BMP280;49036;42.782;23.108;2023-01-19T15:49:48;92953.13;;;11.50
62930;BMP280;49036;42.782;23.108;2023-01-19T15:52:14;92962.19;;;11.37
62930;BMP280;49036;42.782;23.108;2023-01-19T15:54:39;92958.94;;;11.13
62930;BMP280;49036;42.782;23.108;2023-01-19T15:57:04;92956.88;;;10.86
62930;BMP280;49036;42.782;23.108;2023-01-19T15:59:30;92957.16;;;10.65
62930;BMP280;49036;42.782;23.108;2023-01-19T16:01:55;92973.66;;;10.49
62930;BMP280;49036;42.782;23.108;2023-01-19T16:04:21;92967.91;;;10.45
62930;BMP280;49036;42.782;23.108;2023-01-19T16:06:47;92973.19;;;10.27
62930;BMP280;49036;42.782;23.108;2023-01-19T16:09:14;92974.19;;;10.59
62930;BMP280;49036;42.782;23.108;2023-01-19T16:11:43;92996.34;;;10.71
62930;BMP280;49036;42.782;23.108;2023-01-19T16:14:08;92986.88;;;10.76
62930;BMP280;49036;42.782;23.108;2023-01-19T16:16:34;92999.78;;;10.58
62930;BMP280;49036;42.782;23.108;2023-01-19T16:19:00;93008.94;;;10.35
62930;BMP280;49036;42.782;23.108;2023-01-19T16:21:25;93005.81;;;10.15
62930;BMP280;49036;42.782;23.108;2023-01-19T16:23:51;93008.03;;;10.19
62930;BMP280;49036;42.782;23.108;2023-01-19T16:26:24;93002.78;;;10.11
62930;BMP280;49036;42.782;23.108;2023-01-19T16:28:49;93021.72;;;10.15
62930;BMP280;49036;42.782;23.108;2023-01-19T16:31:15;93005.06;;;10.15
62930;BMP280;49036;42.782;23.108;2023-01-19T16:33:41;93053.66;;;10.16
62930;BMP280;49036;42.782;23.108;2023-01-19T16:36:20;93033.06;;;10.07
62930;BMP280;49036;42.782;23.108;2023-01-19T16:38:46;93048.41;;;9.96
62930;BMP280;49036;42.782;23.108;2023-01-19T16:41:11;93049.59;;;9.93
62930;BMP280;49036;42.782;23.108;2023-01-19T16:43:36;93047.00;;;9.84
62930;BMP280;49036;42.782;23.108;2023-01-19T16:46:02;93043.38;;;9.81
62930;BMP280;49036;42.782;23.108;2023-01-19T16:48:28;93052.19;;;9.77
62930;BMP280;49036;42.782;23.108;2023-01-19T16:51:04;93045.22;;;9.65
62930;BMP280;49036;42.782;23.108;2023-01-19T16:53:31;93035.72;;;9.56
62930;BMP280;49036;42.782;23.108;2023-01-19T16:56:05;93085.34;;;9.52
62930;BMP280;49036;42.782;23.108;2023-01-19T16:58:31;93086.41;;;9.35
62930;BMP280;49036;42.782;23.108;2023-01-19T17:00:56;93085.63;;;8.88
62930;BMP280;49036;42.782;23.108;2023-01-19T17:03:22;93080.59;;;8.51
62930;BMP280;49036;42.782;23.108;2023-01-19T17:05:49;93091.66;;;8.18
62930;BMP280;49036;42.782;23.108;2023-01-19T17:08:17;93083.38;;;7.97
62930;BMP280;49036;42.782;23.108;2023-01-19T17:10:42;93043.22;;;7.75
62930;BMP280;49036;42.782;23.108;2023-01-19T17:13:08;93040.59;;;7.55
62930;BMP280;49036;42.782;23.108;2023-01-19T17:15:33;93039.41;;;7.37
62930;BMP280;49036;42.782;23.108;2023-01-19T17:17:59;93039.91;;;7.24
62930;BMP280;49036;42.782;23.108;2023-01-19T17:20:25;93044.31;;;7.17
62930;BMP280;49036;42.782;23.108;2023-01-19T17:22:50;93037.59;;;7.20
62930;BMP280;49036;42.782;23.108;2023-01-19T17:25:16;93019.84;;;7.23
62930;BMP280;49036;42.782;23.108;2023-01-19T17:27:41;93021.28;;;7.34
62930;BMP280;49036;42.782;23.108;2023-01-19T17:30:07;93008.00;;;7.42
62930;BMP280;49036;42.782;23.108;2023-01-19T17:32:33;93011.16;;;7.48
62930;BMP280;49036;42.782;23.108;2023-01-19T17:34:58;93001.84;;;7.53
62930;BMP280;49036;42.782;23.108;2023-01-19T17:37:24;92989.75;;;7.58
62930;BMP280;49036;42.782;23.108;2023-01-19T17:39:49;92997.44;;;7.60
62930;BMP280;49036;42.782;23.108;2023-01-19T17:42:15;92992.28;;;7.66
62930;BMP280;49036;42.782;23.108;2023-01-19T17:44:40;93002.81;;;7.79
62930;BMP280;49036;42.782;23.108;2023-01-19T17:47:06;93009.06;;;7.80
62930;BMP280;49036;42.782;23.108;2023-01-19T17:49:32;93007.91;;;7.83
62930;BMP280;49036;42.782;23.108;2023-01-19T17:51:58;93008.72;;;7.85
62930;BMP280;49036;42.782;23.108;2023-01-19T17:54:23;92996.13;;;7.82
62930;BMP280;49036;42.782;23.108;2023-01-19T17:56:49;93021.13;;;7.84
62930;BMP280;49036;42.782;23.108;2023-01-19T17:59:15;93009.41;;;7.74
62930;BMP280;49036;42.782;23.108;2023-01-19T18:01:41;93017.09;;;7.76
62930;BMP280;49036;42.782;23.108;2023-01-19T18:04:08;93038.19;;;7.71
62930;BMP280;49036;42.782;23.108;2023-01-19T18:06:35;93036.03;;;7.70
62930;BMP280;49036;42.782;23.108;2023-01-19T18:09:00;93030.59;;;7.81
62930;BMP280;49036;42.782;23.108;2023-01-19T18:11:26;93044.25;;;7.79
62930;BMP280;49036;42.782;23.108;2023-01-19T18:13:52;93047.34;;;7.74
62930;BMP280;49036;42.782;23.108;2023-01-19T18:16:23;93051.88;;;7.69
62930;BMP280;49036;42.782;23.108;2023-01-19T18:18:51;93060.06;;;7.57
62930;BMP280;49036;42.782;23.108;2023-01-19T18:21:19;93076.00;;;7.38
62930;BMP280;49036;42.782;23.108;2023-01-19T18:23:46;93091.16;;;7.27
62930;BMP280;49036;42.782;23.108;2023-01-19T18:26:20;93089.59;;;7.14
62930;BMP280;49036;42.782;23.108;2023-01-19T18:28:47;93093.69;;;7.04
62930;BMP280;49036;42.782;23.108;2023-01-19T18:31:15;93072.53;;;6.96
62930;BMP280;49036;42.782;23.108;2023-01-19T18:33:41;93071.53;;;6.92
62930;BMP280;49036;42.782;23.108;2023-01-19T18:36:07;93078.66;;;6.85
62930;BMP280;49036;42.782;23.108;2023-01-19T18:38:34;93065.31;;;6.82
62930;BMP280;49036;42.782;23.108;2023-01-19T18:41:05;93062.13;;;6.76
62930;BMP280;49036;42.782;23.108;2023-01-19T18:43:31;93057.22;;;6.74
62930;BMP280;49036;42.782;23.108;2023-01-19T18:45:57;93056.19;;;6.69
62930;BMP280;49036;42.782;23.108;2023-01-19T18:48:22;93051.53;;;6.72
62930;BMP280;49036;42.782;23.108;2023-01-19T18:50:48;93061.28;;;6.73
62930;BMP280;49036;42.782;23.108;2023-01-19T18:53:14;93072.31;;;6.73
62930;BMP280;49036;42.782;23.108;2023-01-19T18:55:48;93093.63;;;6.73
62930;BMP280;49036;42.782;23.108;2023-01-19T18:58:14;93091.44;;;6.71
62930;BMP280;49036;42.782;23.108;2023-01-19T19:00:39;93091.44;;;6.71
62930;BMP280;49036;42.782;23.108;2023-01-19T19:03:05;93082.59;;;6.73
62930;BMP280;49036;42.782;23.108;2023-01-19T19:05:35;93095.94;;;6.76
62930;BMP280;49036;42.782;23.108;2023-01-19T19:08:03;93102.75;;;6.75
62930;BMP280;49036;42.782;23.108;2023-01-19T19:10:29;93101.91;;;6.73
62930;BMP280;49036;42.782;23.108;2023-01-19T19:12:55;93114.69;;;6.68
62930;BMP280;49036;42.782;23.108;2023-01-19T19:15:20;93118.16;;;6.68
62930;BMP280;49036;42.782;23.108;2023-01-19T19:17:46;93107.28;;;6.61
62930;BMP280;49036;42.782;23.108;2023-01-19T19:20:12;93109.63;;;6.55
62930;BMP280;49036;42.782;23.108;2023-01-19T19:22:38;93113.38;;;6.50
62930;BMP280;49036;42.782;23.108;2023-01-19T19:25:04;93090.19;;;6.43
62930;BMP280;49036;42.782;23.108;2023-01-19T19:27:29;93080.31;;;6.40
62930;BMP280;49036;42.782;23.108;2023-01-19T19:29:55;93076.53;;;6.35
62930;BMP280;49036;42.782;23.108;2023-01-19T19:32:20;93081.19;;;6.33
62930;BMP280;49036;42.782;23.108;2023-01-19T19:34:50;93078.28;;;6.31
62930;BMP280;49036;42.782;23.108;2023-01-19T19:37:18;93076.53;;;6.26
62930;BMP280;49036;42.782;23.108;2023-01-19T19:39:44;93076.41;;;6.24
62930;BMP280;49036;42.782;23.108;2023-01-19T19:42:10;93064.06;;;6.25
62930;BMP280;49036;42.782;23.108;2023-01-19T19:44:38;93045.97;;;6.22
62930;BMP280;49036;42.782;23.108;2023-01-19T19:47:04;93041.59;;;6.19
62930;BMP280;49036;42.782;23.108;2023-01-19T19:49:29;93039.56;;;6.19
62930;BMP280;49036;42.782;23.108;2023-01-19T19:51:55;93029.72;;;6.16
62930;BMP280;49036;42.782;23.108;2023-01-19T19:54:20;93040.88;;;6.18
62930;BMP280;49036;42.782;23.108;2023-01-19T19:56:46;93041.47;;;6.17
62930;BMP280;49036;42.782;23.108;2023-01-19T19:59:14;93038.28;;;6.20
62930;BMP280;49036;42.782;23.108;2023-01-19T20:01:40;93039.13;;;6.23
62930;BMP280;49036;42.782;23.108;2023-01-19T20:04:10;93020.13;;;6.27
62930;BMP280;49036;42.782;23.108;2023-01-19T20:06:39;93002.88;;;6.26
62930;BMP280;49036;42.782;23.108;2023-01-19T20:09:07;92956.22;;;6.28
62930;BMP280;49036;42.782;23.108;2023-01-19T20:11:34;92998.09;;;6.27
62930;BMP280;49036;42.782;23.108;2023-01-19T20:14:03;93011.13;;;6.26
62930;BMP280;49036;42.782;23.108;2023-01-19T20:16:28;92985.78;;;6.28
62930;BMP280;49036;42.782;23.108;2023-01-19T20:18:54;92989.00;;;6.34
62930;BMP280;49036;42.782;23.108;2023-01-19T20:21:26;92968.22;;;6.43
62930;BMP280;49036;42.782;23.108;2023-01-19T20:23:53;92959.38;;;6.44
62930;BMP280;49036;42.782;23.108;2023-01-19T20:26:22;92951.97;;;6.47
62930;BMP280;49036;42.782;23.108;2023-01-19T20:28:49;92955.44;;;6.47
62930;BMP280;49036;42.782;23.108;2023-01-19T20:31:16;92975.44;;;6.57
62930;BMP280;49036;42.782;23.108;2023-01-19T20:33:43;92986.88;;;6.63
62930;BMP280;49036;42.782;23.108;2023-01-19T20:36:10;92973.53;;;6.60
62930;BMP280;49036;42.782;23.108;2023-01-19T20:38:37;92977.72;;;6.61
62930;BMP280;49036;42.782;23.108;2023-01-19T20:41:03;92993.25;;;6.66
62930;BMP280;49036;42.782;23.108;2023-01-19T20:43:29;92965.22;;;6.69
62930;BMP280;49036;42.782;23.108;2023-01-19T20:45:54;92991.66;;;6.63
62930;BMP280;49036;42.782;23.108;2023-01-19T20:48:20;93014.16;;;6.59
62930;BMP280;49036;42.782;23.108;2023-01-19T20:50:46;93018.81;;;6.57
62930;BMP280;49036;42.782;23.108;2023-01-19T20:53:11;93011.53;;;6.52
62930;BMP280;49036;42.782;23.108;2023-01-19T20:55:37;93020.13;;;6.46
62930;BMP280;49036;42.782;23.108;2023-01-19T20:58:03;93031.72;;;6.35
62930;BMP280;49036;42.782;23.108;2023-01-19T21:00:28;93037.41;;;6.27
62930;BMP280;49036;42.782;23.108;2023-01-19T21:02:54;93038.44;;;6.22
62930;BMP280;49036;42.782;23.108;2023-01-19T21:05:21;93030.31;;;6.15
62930;BMP280;49036;42.782;23.108;2023-01-19T21:07:47;93010.75;;;6.10
62930;BMP280;49036;42.782;23.108;2023-01-19T21:12:39;93042.75;;;5.87
62930;BMP280;49036;42.782;23.108;2023-01-19T21:15:05;93029.72;;;5.77
62930;BMP280;49036;42.782;23.108;2023-01-19T21:17:30;93042.00;;;5.67
62930;BMP280;49036;42.782;23.108;2023-01-19T21:19:56;93035.91;;;5.59
62930;BMP280;49036;42.782;23.108;2023-01-19T21:22:21;93032.25;;;5.56
62930;BMP280;49036;42.782;23.108;2023-01-19T21:24:47;93033.97;;;5.42
62930;BMP280;49036;42.782;23.108;2023-01-19T21:27:12;93047.72;;;5.32
62930;BMP280;49036;42.782;23.108;2023-01-19T21:29:38;93063.59;;;5.24
62930;BMP280;49036;42.782;23.108;2023-01-19T21:32:05;93047.50;;;5.20
62930;BMP280;49036;42.782;23.108;2023-01-19T21:34:31;93046.91;;;5.12
62930;BMP280;49036;42.782;23.108;2023-01-19T21:36:56;93033.00;;;5.10
62930;BMP280;49036;42.782;23.108;2023-01-19T21:39:22;93039.78;;;5.09
62930;BMP280;49036;42.782;23.108;2023-01-19T21:41:47;93038.34;;;5.08
62930;BMP280;49036;42.782;23.108;2023-01-19T21:44:13;93042.72;;;5.11
62930;BMP280;49036;42.782;23.108;2023-01-19T21:46:39;93036.31;;;5.09
62930;BMP280;49036;42.782;23.108;2023-01-19T21:49:06;93028.06;;;5.09
62930;BMP280;49036;42.782;23.108;2023-01-19T21:51:34;93015.78;;;5.10
62930;BMP280;49036;42.782;23.108;2023-01-19T21:54:02;93004.38;;;5.13
62930;BMP280;49036;42.782;23.108;2023-01-19T21:56:28;93001.47;;;5.11
62930;BMP280;49036;42.782;23.108;2023-01-19T21:58:54;92992.94;;;5.17
62930;BMP280;49036;42.782;23.108;2023-01-19T22:01:20;92989.91;;;5.22
62930;BMP280;49036;42.782;23.108;2023-01-19T22:03:48;92980.78;;;5.20
62930;BMP280;49036;42.782;23.108;2023-01-19T22:06:17;92967.75;;;5.20
62930;BMP280;49036;42.782;23.108;2023-01-19T22:08:42;92970.94;;;5.17
62930;BMP280;49036;42.782;23.108;2023-01-19T22:11:11;92966.59;;;5.14
62930;BMP280;49036;42.782;23.108;2023-01-19T22:13:37;92987.00;;;5.20
62930;BMP280;49036;42.782;23.108;2023-01-19T22:16:04;93005.81;;;5.24
62930;BMP280;49036;42.782;23.108;2023-01-19T22:18:33;92990.38;;;5.29
62930;BMP280;49036;42.782;23.108;2023-01-19T22:21:13;92983.28;;;5.35
62930;BMP280;49036;42.782;23.108;2023-01-19T22:23:40;92992.09;;;5.34
62930;BMP280;49036;42.782;23.108;2023-01-19T22:26:06;92962.00;;;5.26
62930;BMP280;49036;42.782;23.108;2023-01-19T22:28:32;92954.16;;;5.22
62930;BMP280;49036;42.782;23.108;2023-01-19T22:31:15;92953.78;;;5.45
62930;BMP280;49036;42.782;23.108;2023-01-19T22:33:42;92971.59;;;5.54
62930;BMP280;49036;42.782;23.108;2023-01-19T22:36:14;92987.63;;;5.48
62930;BMP280;49036;42.782;23.108;2023-01-19T22:38:40;92973.31;;;5.49
62930;BMP280;49036;42.782;23.108;2023-01-19T22:41:18;92941.91;;;5.43
62930;BMP280;49036;42.782;23.108;2023-01-19T22:43:45;92944.50;;;5.41
62930;BMP280;49036;42.782;23.108;2023-01-19T22:46:10;92944.34;;;5.39
62930;BMP280;49036;42.782;23.108;2023-01-19T22:48:36;92935.94;;;5.37
62930;BMP280;49036;42.782;23.108;2023-01-19T22:51:02;92915.81;;;5.34
62930;BMP280;49036;42.782;23.108;2023-01-19T22:53:30;92934.78;;;5.30
62930;BMP280;49036;42.782;23.108;2023-01-19T22:55:55;92944.63;;;5.33
62930;BMP280;49036;42.782;23.108;2023-01-19T22:58:21;92953.28;;;5.20
62930;BMP280;49036;42.782;23.108;2023-01-19T23:00:46;92967.47;;;5.16
62930;BMP280;49036;42.782;23.108;2023-01-19T23:03:12;92971.94;;;5.12
62930;BMP280;49036;42.782;23.108;2023-01-19T23:05:38;92973.22;;;5.11
62930;BMP280;49036;42.782;23.108;2023-01-19T23:08:03;92972.50;;;5.10
62930;BMP280;49036;42.782;23.108;2023-01-19T23:10:29;92977.72;;;5.06
62930;BMP280;49036;42.782;23.108;2023-01-19T23:12:55;92977.28;;;5.10
62930;BMP280;49036;42.782;23.108;2023-01-19T23:15:21;92984.22;;;5.11
62930;BMP280;49036;42.782;23.108;2023-01-19T23:17:46;92990.47;;;5.11
62930;BMP280;49036;42.782;23.108;2023-01-19T23:20:18;93010.59;;;5.14
62930;BMP280;49036;42.782;23.108;2023-01-19T23:22:43;93026.38;;;5.13
62930;BMP280;49036;42.782;23.108;2023-01-19T23:25:09;93055.16;;;5.12
62930;BMP280;49036;42.782;23.108;2023-01-19T23:27:35;93079.91;;;5.12
62930;BMP280;49036;42.782;23.108;2023-01-19T23:30:00;93083.69;;;5.17
62930;BMP280;49036;42.782;23.108;2023-01-19T23:32:26;93066.47;;;5.16
62930;BMP280;49036;42.782;23.108;2023-01-19T23:34:51;93052.25;;;5.10
62930;BMP280;49036;42.782;23.108;2023-01-19T23:37:17;93033.00;;;5.10
62930;BMP280;49036;42.782;23.108;2023-01-19T23:39:42;93022.72;;;5.11
62930;BMP280;49036;42.782;23.108;2023-01-19T23:42:08;93004.22;;;5.11
62930;BMP280;49036;42.782;23.108;2023-01-19T23:44:34;92956.50;;;5.26
62930;BMP280;49036;42.782;23.108;2023-01-19T23:47:00;92902.63;;;5.23
62930;BMP280;49036;42.782;23.108;2023-01-19T23:49:25;92892.78;;;5.20
62930;BMP280;49036;42.782;23.108;2023-01-19T23:51:51;92906.22;;;5.06
62930;BMP280;49036;42.782;23.108;2023-01-19T23:54:16;92887.13;;;5.08
62930;BMP280;49036;42.782;23.108;2023-01-19T23:56:42;92858.31;;;5.09
62930;BMP280;49036;42.782;23.108;2023-01-19T23:59:10;92875.38;;;4.98
